Time;durP1;ratioP1;P1;durP2;ratioP2;P2;SDS_P1;SDS_P2;PMS_P1;PMS_P2;Temp;Humidity;BMP_temperature;BMP_pressure;BME280_temperature;BME280_humidity;BME280_pressure;Samples;Min_cycle;Max_cycle;Signal;HPM_P1;HPM_P2
2022/04/06 00:01:44;;;;;;;25.13;12.80;;;;;;;;;;5026500;28;20048;-65
2022/04/06 00:04:10;;;;;;;26.90;12.55;;;;;;;;;;5018646;28;20048;-64
2022/04/06 00:06:37;;;;;;;41.03;13.40;;;;;;;;;;5026362;28;20089;-64
2022/04/06 00:09:15;;;;;;;37.92;12.35;;;;;;;;;;5008640;28;20444;-63
2022/04/06 00:11:42;;;;;;;25.88;11.13;;;;;;;;;;5026061;28;20045;-64
2022/04/06 00:14:08;;;;;;;30.65;12.15;;;;;;;;;;5017535;28;20099;-64
2022/04/06 00:16:34;;;;;;;22.60;10.38;;;;;;;;;;5029917;28;20049;-63
2022/04/06 00:19:01;;;;;;;24.10;11.05;;;;;;;;;;5023867;28;20499;-64
2022/04/06 00:21:27;;;;;;;22.05;10.40;;;;;;;;;;5014046;28;20152;-64
2022/04/06 00:23:54;;;;;;;28.10;11.32;;;;;;;;;;5019224;28;20609;-64
2022/04/06 00:26:21;;;;;;;21.75;11.43;;;;;;;;;;5015772;28;20071;-63
2022/04/06 00:28:47;;;;;;;27.00;10.10;;;;;;;;;;5025297;28;20072;-64
2022/04/06 00:31:13;;;;;;;23.42;10.30;;;;;;;;;;5033651;28;21053;-64
2022/04/06 00:33:40;;;;;;;27.35;11.05;;;;;;;;;;5038953;28;20072;-63
2022/04/06 00:36:06;;;;;;;23.63;9.70;;;;;;;;;;5019655;28;20049;-64
2022/04/06 00:38:32;;;;;;;25.80;10.00;;;;;;;;;;5012364;28;20458;-64
2022/04/06 00:40:59;;;;;;;27.02;11.27;;;;;;;;;;5034887;28;20451;-64
2022/04/06 00:43:25;;;;;;;23.42;9.73;;;;;;;;;;5015444;28;20143;-64
2022/04/06 00:45:52;;;;;;;23.52;9.40;;;;;;;;;;5030106;28;20096;-63
2022/04/06 00:48:18;;;;;;;24.33;9.80;;;;;;;;;;5027352;28;20083;-64
2022/04/06 00:50:45;;;;;;;21.00;8.75;;;;;;;;;;5023407;28;20061;-64
2022/04/06 00:53:14;;;;;;;24.98;10.68;;;;;;;;;;5057939;28;20052;-64
2022/04/06 00:55:40;;;;;;;27.63;9.85;;;;;;;;;;5019402;28;20056;-65
2022/04/06 00:58:08;;;;;;;20.20;9.63;;;;;;;;;;5030753;28;20092;-64
2022/04/06 01:00:34;;;;;;;32.13;10.32;;;;;;;;;;5017745;28;20088;-64
2022/04/06 01:03:01;;;;;;;26.75;10.82;;;;;;;;;;5021579;28;20070;-64
2022/04/06 01:05:27;;;;;;;21.08;10.27;;;;;;;;;;5016975;28;20061;-64
2022/04/06 01:07:55;;;;;;;23.55;10.80;;;;;;;;;;4999815;28;20049;-63
2022/04/06 01:10:21;;;;;;;24.38;11.88;;;;;;;;;;5023998;28;20056;-64
2022/04/06 01:12:48;;;;;;;23.60;12.07;;;;;;;;;;5015896;28;20594;-64
2022/04/06 01:15:15;;;;;;;31.40;11.30;;;;;;;;;;5027280;28;20129;-64
2022/04/06 01:17:41;;;;;;;34.17;12.32;;;;;;;;;;5013265;28;20596;-64
2022/04/06 01:20:08;;;;;;;27.35;10.30;;;;;;;;;;5018232;28;20052;-64
2022/04/06 01:22:35;;;;;;;22.90;10.95;;;;;;;;;;5023603;28;20049;-64
2022/04/06 01:25:02;;;;;;;25.42;10.65;;;;;;;;;;5026330;28;20057;-64
2022/04/06 01:27:28;;;;;;;30.33;11.07;;;;;;;;;;5021919;28;20061;-64
2022/04/06 01:29:54;;;;;;;24.17;9.25;;;;;;;;;;5016443;28;20049;-64
2022/04/06 01:32:22;;;;;;;20.27;9.50;;;;;;;;;;5035609;28;20498;-64
2022/04/06 01:34:49;;;;;;;27.67;9.82;;;;;;;;;;5020666;28;20049;-64
2022/04/06 01:37:16;;;;;;;23.70;10.25;;;;;;;;;;5023634;28;20574;-63
2022/04/06 01:39:44;;;;;;;27.42;10.25;;;;;;;;;;5022232;28;20065;-64
2022/04/06 01:42:11;;;;;;;20.35;9.27;;;;;;;;;;5018445;28;20059;-64
2022/04/06 01:44:38;;;;;;;22.73;8.82;;;;;;;;;;5029574;28;20054;-63
2022/04/06 01:47:05;;;;;;;21.38;9.05;;;;;;;;;;5017855;28;20048;-64
2022/04/06 01:52:17;;;;;;;26.35;9.07;;;;;;;;;;5036177;28;20324;-64
2022/04/06 01:54:47;;;;;;;22.35;8.75;;;;;;;;;;5020720;28;20045;-63
2022/04/06 01:57:14;;;;;;;23.10;9.35;;;;;;;;;;5023119;28;20397;-64
2022/04/06 01:59:41;;;;;;;20.92;7.82;;;;;;;;;;5010874;28;20422;-64
2022/04/06 02:02:08;;;;;;;22.83;8.77;;;;;;;;;;5017222;28;20219;-64
2022/04/06 02:04:36;;;;;;;21.67;7.75;;;;;;;;;;5013743;28;20060;-64
2022/04/06 02:07:02;;;;;;;19.55;7.43;;;;;;;;;;5022480;28;20053;-64
2022/04/06 02:09:29;;;;;;;22.42;7.65;;;;;;;;;;5015054;28;20053;-64
2022/04/06 02:11:55;;;;;;;14.88;7.30;;;;;;;;;;5022688;28;20080;-64
2022/04/06 02:14:22;;;;;;;18.77;7.90;;;;;;;;;;5016708;28;20243;-64
2022/04/06 02:16:49;;;;;;;25.23;8.23;;;;;;;;;;5013324;28;20041;-64
2022/04/06 02:19:15;;;;;;;25.65;7.22;;;;;;;;;;5042075;28;20151;-63
2022/04/06 02:21:42;;;;;;;23.45;8.32;;;;;;;;;;5017684;28;20045;-63
2022/04/06 02:24:08;;;;;;;19.40;7.20;;;;;;;;;;5025646;28;20049;-63
2022/04/06 02:26:34;;;;;;;22.85;6.75;;;;;;;;;;5033570;28;20044;-64
2022/04/06 02:29:01;;;;;;;16.88;7.30;;;;;;;;;;5027732;28;20056;-64
2022/04/06 02:31:27;;;;;;;18.85;7.38;;;;;;;;;;5037297;28;20075;-64
2022/04/06 02:33:54;;;;;;;21.95;6.75;;;;;;;;;;5017323;28;20581;-64
2022/04/06 02:36:20;;;;;;;20.55;7.38;;;;;;;;;;5032943;28;20052;-64
2022/04/06 02:38:47;;;;;;;23.33;6.53;;;;;;;;;;5022215;28;20060;-64
2022/04/06 02:41:13;;;;;;;19.77;7.30;;;;;;;;;;5007474;28;20046;-64
2022/04/06 02:43:40;;;;;;;20.23;7.07;;;;;;;;;;5013643;28;20049;-64
2022/04/06 02:46:06;;;;;;;17.98;6.28;;;;;;;;;;5027977;28;20064;-64
2022/04/06 02:48:32;;;;;;;21.48;6.53;;;;;;;;;;5036305;28;20091;-64
2022/04/06 02:50:59;;;;;;;21.23;7.38;;;;;;;;;;5024352;28;20477;-64
2022/04/06 02:53:25;;;;;;;18.27;6.55;;;;;;;;;;5046549;28;20044;-64
2022/04/06 02:55:52;;;;;;;18.42;6.53;;;;;;;;;;5020803;28;20044;-64
2022/04/06 02:58:18;;;;;;;18.95;6.30;;;;;;;;;;5033502;28;20049;-64
2022/04/06 03:00:44;;;;;;;19.85;6.20;;;;;;;;;;5032321;28;20048;-64
2022/04/06 03:03:11;;;;;;;15.57;5.57;;;;;;;;;;5028407;28;20495;-64
2022/04/06 03:05:39;;;;;;;20.65;6.28;;;;;;;;;;5036463;28;20516;-64
2022/04/06 03:08:06;;;;;;;17.35;5.47;;;;;;;;;;5030323;28;20053;-64
2022/04/06 03:10:33;;;;;;;17.63;5.30;;;;;;;;;;5032692;28;20552;-63
2022/04/06 03:12:59;;;;;;;18.40;5.97;;;;;;;;;;5014612;28;20056;-63
2022/04/06 03:15:27;;;;;;;15.50;5.10;;;;;;;;;;5026516;28;20045;-64
2022/04/06 03:17:53;;;;;;;14.85;5.47;;;;;;;;;;5032651;28;20049;-64
2022/04/06 03:20:20;;;;;;;13.07;4.85;;;;;;;;;;5018640;28;20529;-65
2022/04/06 03:22:46;;;;;;;15.57;5.28;;;;;;;;;;5027443;28;20201;-64
2022/04/06 03:25:12;;;;;;;19.27;5.63;;;;;;;;;;5012879;28;20053;-64
2022/04/06 03:27:39;;;;;;;21.52;5.13;;;;;;;;;;5033070;28;20463;-64
2022/04/06 03:30:06;;;;;;;18.65;5.13;;;;;;;;;;5030815;28;20084;-66
2022/04/06 03:32:33;;;;;;;11.88;4.32;;;;;;;;;;5041434;28;20056;-63
2022/04/06 03:34:59;;;;;;;12.05;3.72;;;;;;;;;;5039366;28;20061;-63
2022/04/06 03:37:25;;;;;;;15.27;4.93;;;;;;;;;;5028790;28;20485;-64
2022/04/06 03:39:51;;;;;;;10.02;3.83;;;;;;;;;;5021767;28;20049;-64
2022/04/06 03:42:18;;;;;;;12.52;4.15;;;;;;;;;;5017792;28;21095;-64
2022/04/06 03:44:44;;;;;;;15.20;4.22;;;;;;;;;;5041762;28;20052;-64
2022/04/06 03:47:10;;;;;;;14.45;4.25;;;;;;;;;;5032206;28;20049;-64
2022/04/06 03:49:37;;;;;;;14.65;4.53;;;;;;;;;;5034778;28;20061;-64
2022/04/06 03:52:03;;;;;;;11.82;3.47;;;;;;;;;;5033381;28;20051;-64
2022/04/06 03:54:30;;;;;;;9.90;3.20;;;;;;;;;;5029316;28;20057;-64
2022/04/06 03:56:56;;;;;;;14.48;3.22;;;;;;;;;;5025960;28;20046;-64
2022/04/06 03:59:22;;;;;;;14.27;4.10;;;;;;;;;;5018610;28;20053;-64
2022/04/06 04:01:48;;;;;;;12.27;3.70;;;;;;;;;;5026932;28;20197;-64
2022/04/06 04:04:15;;;;;;;17.05;4.60;;;;;;;;;;5026067;28;20049;-64
2022/04/06 04:06:41;;;;;;;9.27;2.80;;;;;;;;;;5010223;28;20049;-64
2022/04/06 04:09:07;;;;;;;13.85;3.08;;;;;;;;;;5023727;28;20057;-64
2022/04/06 04:11:34;;;;;;;14.57;3.38;;;;;;;;;;5019497;28;20172;-64
2022/04/06 04:14:00;;;;;;;7.50;2.72;;;;;;;;;;5032369;28;20045;-64
2022/04/06 04:16:26;;;;;;;10.77;2.85;;;;;;;;;;5032231;28;20057;-64
2022/04/06 04:18:53;;;;;;;8.90;3.05;;;;;;;;;;5025947;28;20051;-64
2022/04/06 04:21:32;;;;;;;8.70;3.00;;;;;;;;;;5023501;28;20045;-64
2022/04/06 04:23:59;;;;;;;9.80;3.22;;;;;;;;;;5016009;28;20377;-64
2022/04/06 04:26:25;;;;;;;10.85;3.17;;;;;;;;;;5025015;28;20414;-64
2022/04/06 04:28:52;;;;;;;10.23;3.05;;;;;;;;;;5015631;28;20060;-64
2022/04/06 04:31:18;;;;;;;11.98;3.25;;;;;;;;;;5040474;28;20052;-64
2022/04/06 04:33:44;;;;;;;12.82;3.42;;;;;;;;;;5018483;28;20056;-64
2022/04/06 04:36:11;;;;;;;8.93;3.15;;;;;;;;;;5017454;28;20092;-64
2022/04/06 04:38:37;;;;;;;9.43;3.17;;;;;;;;;;5026227;28;20427;-64
2022/04/06 04:41:06;;;;;;;13.70;3.70;;;;;;;;;;5037887;28;20726;-64
2022/04/06 04:43:32;;;;;;;;;;;;;;;;;;5030028;28;20057;-64
2022/04/06 04:45:59;;;;;;;13.13;3.33;;;;;;;;;;5020828;28;19948;-64
2022/04/06 04:48:25;;;;;;;16.08;4.05;;;;;;;;;;5020230;28;20855;-64
2022/04/06 04:50:51;;;;;;;9.75;3.08;;;;;;;;;;5025567;28;20053;-64
2022/04/06 04:53:18;;;;;;;14.85;3.53;;;;;;;;;;5026257;28;20056;-64
2022/04/06 04:55:44;;;;;;;15.88;3.25;;;;;;;;;;5023134;28;20734;-64
2022/04/06 04:58:10;;;;;;;11.80;3.65;;;;;;;;;;5016537;28;20050;-64
2022/04/06 05:00:37;;;;;;;7.28;3.58;;;;;;;;;;5025390;28;20435;-64
2022/04/06 05:03:03;;;;;;;16.35;3.10;;;;;;;;;;5011336;28;20092;-64
2022/04/06 05:05:29;;;;;;;9.73;2.83;;;;;;;;;;5026446;28;20053;-64
2022/04/06 05:07:58;;;;;;;11.63;3.53;;;;;;;;;;5024747;28;20071;-64
2022/04/06 05:10:25;;;;;;;13.70;3.55;;;;;;;;;;5025397;28;20065;-64
2022/04/06 05:12:52;;;;;;;7.50;3.00;;;;;;;;;;5036100;28;20061;-64
2022/04/06 05:15:20;;;;;;;8.85;3.28;;;;;;;;;;5021460;28;20483;-65
2022/04/06 05:17:46;;;;;;;11.52;3.60;;;;;;;;;;5033683;28;20060;-64
2022/04/06 05:20:13;;;;;;;15.63;4.13;;;;;;;;;;5035496;28;20591;-65
2022/04/06 05:22:39;;;;;;;11.13;3.60;;;;;;;;;;5029595;28;20749;-65
2022/04/06 05:25:07;;;;;;;10.18;3.85;;;;;;;;;;5043161;28;20388;-65
2022/04/06 05:27:42;;;;;;;12.77;3.40;;;;;;;;;;5033286;28;20425;-65
2022/04/06 05:30:10;;;;;;;13.18;3.03;;;;;;;;;;5028104;28;20053;-64
2022/04/06 05:32:36;;;;;;;9.55;3.05;;;;;;;;;;5012636;28;20430;-64
2022/04/06 05:35:03;;;;;;;9.98;2.95;;;;;;;;;;5007471;28;20050;-64
2022/04/06 05:37:32;;;;;;;12.63;3.80;;;;;;;;;;5025155;28;20042;-64
2022/04/06 05:40:00;;;;;;;12.85;3.83;;;;;;;;;;5023118;28;20077;-64
2022/04/06 05:42:26;;;;;;;4.95;2.60;;;;;;;;;;5039325;28;20057;-64
2022/04/06 05:44:52;;;;;;;8.02;2.60;;;;;;;;;;5013226;28;20729;-64
2022/04/06 05:47:19;;;;;;;15.43;3.67;;;;;;;;;;5023420;28;20062;-64
2022/04/06 05:49:45;;;;;;;10.88;3.10;;;;;;;;;;5033925;28;20044;-66
2022/04/06 05:52:11;;;;;;;12.73;3.10;;;;;;;;;;5043094;28;20048;-65
2022/04/06 05:54:38;;;;;;;13.20;3.42;;;;;;;;;;5019535;28;20056;-64
2022/04/06 05:57:04;;;;;;;14.00;3.97;;;;;;;;;;5030403;28;20079;-64
2022/04/06 05:59:30;;;;;;;11.30;3.05;;;;;;;;;;5032644;28;20052;-65
2022/04/06 06:01:57;;;;;;;13.45;3.35;;;;;;;;;;5020312;28;20059;-64
2022/04/06 06:04:23;;;;;;;11.95;3.58;;;;;;;;;;5027604;28;20053;-64
2022/04/06 06:06:50;;;;;;;14.95;3.30;;;;;;;;;;5017377;28;20623;-64
2022/04/06 06:09:16;;;;;;;11.63;3.20;;;;;;;;;;5028687;28;20049;-64
2022/04/06 06:11:42;;;;;;;11.52;3.53;;;;;;;;;;5032114;28;20047;-64
2022/04/06 06:14:08;;;;;;;15.73;4.93;;;;;;;;;;5015273;28;20045;-64
2022/04/06 06:16:35;;;;;;;17.38;4.70;;;;;;;;;;5033042;28;20297;-64
2022/04/06 06:19:01;;;;;;;16.27;4.30;;;;;;;;;;5016298;28;20549;-64
2022/04/06 06:21:31;;;;;;;10.15;3.97;;;;;;;;;;5024167;28;20056;-64
2022/04/06 06:24:02;;;;;;;11.05;4.00;;;;;;;;;;5022481;28;20506;-64
2022/04/06 06:26:28;;;;;;;14.65;4.32;;;;;;;;;;5008078;28;20045;-64
2022/04/06 06:28:55;;;;;;;11.95;4.63;;;;;;;;;;5019611;28;20503;-64
2022/04/06 06:31:21;;;;;;;12.40;4.60;;;;;;;;;;5026888;28;20044;-64
2022/04/06 06:33:48;;;;;;;18.42;5.38;;;;;;;;;;5043567;28;20406;-64
2022/04/06 06:36:15;;;;;;;13.00;4.60;;;;;;;;;;5026903;28;20053;-64
2022/04/06 06:38:41;;;;;;;16.63;4.72;;;;;;;;;;5029306;28;20283;-65
2022/04/06 06:41:08;;;;;;;17.40;4.80;;;;;;;;;;5026954;28;20434;-64
2022/04/06 06:43:34;;;;;;;15.95;4.60;;;;;;;;;;5013765;28;20142;-64
2022/04/06 06:46:00;;;;;;;18.85;5.03;;;;;;;;;;5024777;28;20057;-66
2022/04/06 06:48:27;;;;;;;15.52;4.53;;;;;;;;;;5013794;28;20366;-64
2022/04/06 06:50:53;;;;;;;18.38;5.13;;;;;;;;;;5025521;28;20060;-66
2022/04/06 06:53:19;;;;;;;12.93;4.80;;;;;;;;;;5015326;28;20507;-64
2022/04/06 06:55:46;;;;;;;20.90;5.25;;;;;;;;;;5017718;28;20049;-64
2022/04/06 06:58:12;;;;;;;12.70;4.00;;;;;;;;;;5039957;28;20075;-65
2022/04/06 07:00:38;;;;;;;12.93;4.43;;;;;;;;;;5014738;28;20056;-65
2022/04/06 07:03:05;;;;;;;13.48;3.80;;;;;;;;;;5039127;28;20048;-65
2022/04/06 07:05:31;;;;;;;11.82;3.65;;;;;;;;;;5014508;28;20053;-65
2022/04/06 07:07:58;;;;;;;11.95;3.88;;;;;;;;;;5013804;28;20490;-65
2022/04/06 07:10:25;;;;;;;9.98;3.00;;;;;;;;;;5025483;28;20289;-66
2022/04/06 07:12:52;;;;;;;13.65;3.25;;;;;;;;;;5018029;28;20099;-66
2022/04/06 07:15:18;;;;;;;11.82;3.28;;;;;;;;;;5032520;28;20156;-66
2022/04/06 07:17:49;;;;;;;11.43;3.00;;;;;;;;;;5011594;28;20049;-66
2022/04/06 07:20:16;;;;;;;10.55;2.97;;;;;;;;;;5033067;28;20169;-66
2022/04/06 07:22:42;;;;;;;11.68;2.70;;;;;;;;;;5019414;28;20513;-66
2022/04/06 07:25:09;;;;;;;10.85;2.80;;;;;;;;;;5026689;28;20065;-65
2022/04/06 07:27:36;;;;;;;9.82;2.60;;;;;;;;;;5032896;28;20056;-66
2022/04/06 07:30:03;;;;;;;12.60;2.35;;;;;;;;;;5016014;28;20081;-66
2022/04/06 07:32:30;;;;;;;10.88;3.13;;;;;;;;;;5028940;28;20057;-66
2022/04/06 07:34:56;;;;;;;8.90;2.15;;;;;;;;;;5008412;28;20049;-66
2022/04/06 07:37:22;;;;;;;10.05;2.28;;;;;;;;;;5021995;28;20691;-66
2022/04/06 07:39:48;;;;;;;7.82;2.40;;;;;;;;;;5031480;28;20052;-65
2022/04/06 07:42:15;;;;;;;4.78;1.92;;;;;;;;;;5033810;28;20057;-66
2022/04/06 07:44:41;;;;;;;11.07;2.15;;;;;;;;;;5028319;28;20425;-65
2022/04/06 07:47:07;;;;;;;8.60;2.10;;;;;;;;;;5013742;28;20057;-65
2022/04/06 07:49:34;;;;;;;8.02;2.15;;;;;;;;;;5019823;28;20310;-66
2022/04/06 07:52:00;;;;;;;7.95;1.92;;;;;;;;;;5031734;28;20045;-65
2022/04/06 07:54:26;;;;;;;9.38;2.28;;;;;;;;;;5042490;28;20057;-65
2022/04/06 07:56:52;;;;;;;9.23;2.22;;;;;;;;;;5029266;28;20053;-65
2022/04/06 07:59:19;;;;;;;7.55;1.88;;;;;;;;;;5034635;28;20049;-65
2022/04/06 08:01:45;;;;;;;8.07;2.33;;;;;;;;;;5030758;28;20045;-65
2022/04/06 08:04:12;;;;;;;4.72;1.60;;;;;;;;;;5035384;28;20512;-65
2022/04/06 08:06:38;;;;;;;7.13;1.58;;;;;;;;;;5015205;28;20136;-65
2022/04/06 08:09:06;;;;;;;8.30;1.70;;;;;;;;;;5019624;28;20053;-65
2022/04/06 08:11:33;;;;;;;6.22;1.90;;;;;;;;;;5034636;28;20049;-65
2022/04/06 08:13:59;;;;;;;6.95;1.92;;;;;;;;;;5042299;28;20064;-65
2022/04/06 08:16:25;;;;;;;6.50;2.00;;;;;;;;;;5020494;28;20056;-65
2022/04/06 08:18:51;;;;;;;7.13;2.33;;;;;;;;;;5038307;28;20056;-65
2022/04/06 08:21:18;;;;;;;3.47;1.65;;;;;;;;;;5017562;28;20049;-65
2022/04/06 08:23:45;;;;;;;10.00;2.28;;;;;;;;;;5039872;28;20049;-65
2022/04/06 08:26:11;;;;;;;5.07;1.60;;;;;;;;;;5016521;28;20787;-65
2022/04/06 08:28:37;;;;;;;7.57;1.63;;;;;;;;;;5025744;28;20061;-65
2022/04/06 08:31:05;;;;;;;7.93;1.70;;;;;;;;;;5021630;28;20487;-65
2022/04/06 08:33:31;;;;;;;7.57;2.17;;;;;;;;;;5042221;28;20056;-65
2022/04/06 08:35:58;;;;;;;9.73;1.95;;;;;;;;;;5038558;28;20044;-65
2022/04/06 08:38:24;;;;;;;6.13;1.65;;;;;;;;;;5028274;28;20053;-65
2022/04/06 08:40:51;;;;;;;7.88;1.80;;;;;;;;;;5024136;28;20054;-65
2022/04/06 08:43:17;;;;;;;7.20;1.73;;;;;;;;;;5018036;28;20056;-66
2022/04/06 08:45:44;;;;;;;7.97;1.95;;;;;;;;;;5040183;28;20102;-66
2022/04/06 08:48:11;;;;;;;5.20;1.83;;;;;;;;;;5032406;28;20064;-65
2022/04/06 08:50:38;;;;;;;6.97;2.47;;;;;;;;;;5035950;28;20052;-66
2022/04/06 08:53:05;;;;;;;14.23;3.08;;;;;;;;;;5027996;28;20759;-65
2022/04/06 08:55:32;;;;;;;6.28;2.20;;;;;;;;;;5016859;28;20049;-65
2022/04/06 08:57:59;;;;;;;7.00;2.15;;;;;;;;;;5020658;28;20806;-65
2022/04/06 09:00:26;;;;;;;10.57;2.88;;;;;;;;;;5032090;28;20044;-65
2022/04/06 09:02:53;;;;;;;10.10;3.00;;;;;;;;;;5016777;28;20514;-65
2022/04/06 09:05:23;;;;;;;8.30;2.47;;;;;;;;;;5025980;28;20081;-65
2022/04/06 09:07:53;;;;;;;9.45;2.95;;;;;;;;;;5017413;28;20049;-65
2022/04/06 09:10:31;;;;;;;10.25;3.65;;;;;;;;;;5021438;28;20292;-65
2022/04/06 09:13:26;;;;;;;15.48;3.53;;;;;;;;;;5015911;28;20056;-65
2022/04/06 09:15:59;;;;;;;6.93;3.30;;;;;;;;;;5027865;28;20060;-65
2022/04/06 09:18:51;;;;;;;7.63;3.08;;;;;;;;;;5016615;28;20067;-65
2022/04/06 09:21:18;;;;;;;11.65;3.05;;;;;;;;;;5020129;28;20388;-65
2022/04/06 09:23:48;;;;;;;6.55;3.03;;;;;;;;;;5010479;28;20466;-65
2022/04/06 09:26:22;;;;;;;9.88;3.75;;;;;;;;;;5018662;28;20493;-65
2022/04/06 09:28:49;;;;;;;9.25;3.40;;;;;;;;;;5031344;28;20049;-65
2022/04/06 09:31:16;;;;;;;12.43;4.45;;;;;;;;;;5035347;28;20425;-65
2022/04/06 09:33:54;;;;;;;8.55;3.55;;;;;;;;;;5032059;28;20484;-65
2022/04/06 09:36:21;;;;;;;11.00;4.43;;;;;;;;;;5025385;28;20045;-65
2022/04/06 09:38:48;;;;;;;11.32;4.25;;;;;;;;;;5034470;28;20410;-65
2022/04/06 09:41:15;;;;;;;12.38;4.47;;;;;;;;;;5023587;28;20333;-65
2022/04/06 09:43:44;;;;;;;11.40;4.30;;;;;;;;;;5037829;28;20048;-65
2022/04/06 09:49:03;;;;;;;6.32;4.13;;;;;;;;;;5022979;28;20105;-65
2022/04/06 09:51:29;;;;;;;8.37;4.60;;;;;;;;;;5032902;28;20389;-65
2022/04/06 09:53:56;;;;;;;13.50;5.00;;;;;;;;;;5010078;28;20522;-65
2022/04/06 09:56:22;;;;;;;13.30;5.70;;;;;;;;;;5029951;28;20045;-65
2022/04/06 09:58:49;;;;;;;17.13;5.70;;;;;;;;;;5023533;28;20509;-65
2022/04/06 10:01:16;;;;;;;13.05;5.30;;;;;;;;;;5023896;28;20494;-65
2022/04/06 10:03:49;;;;;;;15.02;5.95;;;;;;;;;;5018225;28;20602;-65
2022/04/06 10:06:16;;;;;;;11.82;5.72;;;;;;;;;;5015490;28;20064;-65
2022/04/06 10:08:43;;;;;;;16.40;5.50;;;;;;;;;;5019964;28;20061;-65
2022/04/06 10:11:11;;;;;;;15.95;6.90;;;;;;;;;;5014673;28;20050;-65
2022/04/06 10:13:38;;;;;;;15.38;5.55;;;;;;;;;;5022481;28;20458;-65
2022/04/06 10:16:20;;;;;;;10.43;5.75;;;;;;;;;;5015867;28;20049;-65
2022/04/06 10:18:48;;;;;;;8.68;5.15;;;;;;;;;;5027332;28;20049;-65
2022/04/06 10:21:30;;;;;;;12.95;5.82;;;;;;;;;;5009820;28;20059;-66
2022/04/06 10:24:08;;;;;;;10.90;5.65;;;;;;;;;;5022841;28;20040;-65
2022/04/06 10:27:03;;;;;;;9.85;5.70;;;;;;;;;;5027471;28;20052;-65
2022/04/06 10:29:29;;;;;;;14.43;6.32;;;;;;;;;;5026339;28;20404;-65
2022/04/06 10:31:55;;;;;;;11.10;4.85;;;;;;;;;;5018793;28;20056;-65
2022/04/06 10:34:32;;;;;;;14.93;5.57;;;;;;;;;;5019673;28;20449;-65
2022/04/06 10:37:10;;;;;;;11.50;4.93;;;;;;;;;;5037950;28;20247;-65
2022/04/06 10:39:59;;;;;;;15.75;6.07;;;;;;;;;;5019532;28;20045;-65
2022/04/06 10:42:29;;;;;;;10.93;5.65;;;;;;;;;;5024878;28;20045;-66
2022/04/06 10:44:56;;;;;;;10.52;5.65;;;;;;;;;;5015984;28;20056;-65
2022/04/06 10:47:23;;;;;;;13.18;5.88;;;;;;;;;;5016796;28;20054;-65
2022/04/06 10:50:19;;;;;;;10.75;6.85;;;;;;;;;;5020613;28;20048;-65
2022/04/06 10:52:45;;;;;;;12.55;5.75;;;;;;;;;;5022635;28;20049;-65
2022/04/06 10:55:20;;;;;;;14.88;5.72;;;;;;;;;;5022653;28;20051;-65
2022/04/06 10:58:15;;;;;;;11.63;5.65;;;;;;;;;;5013237;28;20056;-65
2022/04/06 11:00:42;;;;;;;14.70;5.65;;;;;;;;;;5008182;28;20057;-65
2022/04/06 11:03:16;;;;;;;14.55;5.57;;;;;;;;;;5010651;28;20046;-65
2022/04/06 11:05:48;;;;;;;12.38;5.55;;;;;;;;;;5021302;28;20581;-65
2022/04/06 11:11:37;;;;;;;13.90;6.07;;;;;;;;;;5022812;28;20053;-65
2022/04/06 11:14:04;;;;;;;9.48;5.30;;;;;;;;;;5009189;28;20055;-65
2022/04/06 11:16:38;;;;;;;15.95;5.55;;;;;;;;;;5025285;28;20049;-65
2022/04/06 11:19:04;;;;;;;12.32;5.18;;;;;;;;;;5014546;28;20049;-65
2022/04/06 11:21:31;;;;;;;11.60;6.00;;;;;;;;;;5022583;28;20483;-66
2022/04/06 11:23:57;;;;;;;10.90;6.00;;;;;;;;;;5021775;28;20049;-65
2022/04/06 11:26:25;;;;;;;10.07;5.63;;;;;;;;;;5017121;28;20041;-65
2022/04/06 11:28:58;;;;;;;9.20;5.10;;;;;;;;;;5035433;28;20053;-65
2022/04/06 11:31:25;;;;;;;9.90;5.68;;;;;;;;;;5023804;28;20049;-65
2022/04/06 11:33:51;;;;;;;12.63;4.85;;;;;;;;;;5031447;28;20049;-64
2022/04/06 11:36:18;;;;;;;12.48;5.10;;;;;;;;;;5048101;28;20053;-65
2022/04/06 11:38:51;;;;;;;10.30;5.00;;;;;;;;;;5025045;28;20048;-65
2022/04/06 11:41:19;;;;;;;8.98;4.18;;;;;;;;;;5024244;28;20050;-65
2022/04/06 11:43:46;;;;;;;10.77;5.13;;;;;;;;;;5019407;28;20045;-65
2022/04/06 11:46:12;;;;;;;11.98;4.95;;;;;;;;;;5028166;28;20133;-65
2022/04/06 11:48:40;;;;;;;8.52;4.50;;;;;;;;;;5016437;28;20053;-64
2022/04/06 11:51:06;;;;;;;10.20;4.68;;;;;;;;;;5029015;28;20048;-65
2022/04/06 11:53:33;;;;;;;6.80;4.22;;;;;;;;;;5012259;28;20053;-65
2022/04/06 11:56:01;;;;;;;10.93;5.30;;;;;;;;;;5014734;28;20053;-66
2022/04/06 11:58:32;;;;;;;8.93;4.82;;;;;;;;;;5022764;28;20084;-65
2022/04/06 12:00:59;;;;;;;12.10;4.63;;;;;;;;;;5018397;28;20412;-65
2022/04/06 12:03:39;;;;;;;11.43;5.05;;;;;;;;;;5085437;27;20376;-64
2022/04/06 12:06:07;;;;;;;13.52;5.38;;;;;;;;;;5069483;28;20044;-64
2022/04/06 12:08:34;;;;;;;12.85;5.20;;;;;;;;;;5072571;28;20063;-64
2022/04/06 12:11:00;;;;;;;10.10;5.00;;;;;;;;;;5071928;28;20405;-64
2022/04/06 12:13:28;;;;;;;11.50;4.70;;;;;;;;;;5069527;28;20052;-65
2022/04/06 12:15:56;;;;;;;10.23;4.85;;;;;;;;;;5080193;28;20073;-65
2022/04/06 12:18:23;;;;;;;9.38;4.65;;;;;;;;;;5068868;28;20368;-65
2022/04/06 12:20:50;;;;;;;10.52;4.97;;;;;;;;;;5075791;28;20056;-64
2022/04/06 12:23:17;;;;;;;12.52;5.15;;;;;;;;;;5075785;28;20302;-64
2022/04/06 12:25:44;;;;;;;7.43;4.18;;;;;;;;;;5084817;28;20405;-65
2022/04/06 12:28:23;;;;;;;11.63;4.72;;;;;;;;;;5093387;28;20051;-64
2022/04/06 12:30:50;;;;;;;12.57;5.40;;;;;;;;;;5069662;28;20055;-65
2022/04/06 12:33:32;;;;;;;11.90;5.35;;;;;;;;;;5085941;28;20316;-65
2022/04/06 12:36:11;;;;;;;8.63;4.18;;;;;;;;;;5075947;28;20036;-65
2022/04/06 12:38:37;;;;;;;;;;;;;;;;;;5075579;28;20052;-65
2022/04/06 12:41:07;;;;;;;7.78;4.35;;;;;;;;;;5067594;28;20354;-65
2022/04/06 12:43:46;;;;;;;11.32;4.05;;;;;;;;;;5076968;28;20040;-64
2022/04/06 12:46:13;;;;;;;7.97;3.78;;;;;;;;;;5084138;28;20054;-64
2022/04/06 12:48:39;;;;;;;8.48;3.65;;;;;;;;;;5077415;28;20048;-64
2022/04/06 12:51:25;;;;;;;10.93;3.47;;;;;;;;;;5083209;28;20131;-64
2022/04/06 12:53:51;;;;;;;8.75;3.80;;;;;;;;;;5064710;28;20608;-64
2022/04/06 12:56:24;;;;;;;6.97;3.88;;;;;;;;;;5076508;28;20048;-65
2022/04/06 12:59:09;;;;;;;6.72;3.70;;;;;;;;;;5068446;28;20294;-65
2022/04/06 13:01:45;;;;;;;8.38;3.70;;;;;;;;;;5077169;28;20465;-65
2022/04/06 13:04:12;;;;;;;10.07;4.38;;;;;;;;;;5063443;28;20461;-65
2022/04/06 13:06:38;;;;;;;8.98;4.10;;;;;;;;;;5087248;28;20500;-65
2022/04/06 13:09:10;;;;;;;9.40;4.07;;;;;;;;;;5074796;27;20040;-65
2022/04/06 13:11:48;;;;;;;9.52;4.07;;;;;;;;;;5089248;28;20053;-65
2022/04/06 13:14:14;;;;;;;4.40;3.17;;;;;;;;;;5077593;28;20075;-66
2022/04/06 13:16:41;;;;;;;8.27;4.05;;;;;;;;;;5063036;28;20264;-65
2022/04/06 13:19:07;;;;;;;7.40;3.60;;;;;;;;;;5076687;28;20420;-65
2022/04/06 13:21:34;;;;;;;6.97;3.78;;;;;;;;;;5055172;28;20856;-65
2022/04/06 13:24:01;;;;;;;7.43;3.75;;;;;;;;;;5062541;28;20378;-65
2022/04/06 13:26:28;;;;;;;8.70;3.70;;;;;;;;;;5057123;28;20056;-65
2022/04/06 13:28:54;;;;;;;5.43;3.40;;;;;;;;;;5076660;28;20580;-65
2022/04/06 13:31:20;;;;;;;8.52;3.90;;;;;;;;;;5071675;28;20036;-65
2022/04/06 13:33:47;;;;;;;7.30;3.17;;;;;;;;;;5069199;28;20060;-65
2022/04/06 13:36:13;;;;;;;9.43;3.40;;;;;;;;;;5071298;28;20037;-65
2022/04/06 13:38:39;;;;;;;5.25;3.22;;;;;;;;;;5056948;28;20059;-64
2022/04/06 13:41:05;;;;;;;10.88;4.10;;;;;;;;;;5065464;28;20059;-65
2022/04/06 13:43:32;;;;;;;8.32;3.30;;;;;;;;;;5060866;28;20052;-65
2022/04/06 13:45:58;;;;;;;7.35;3.58;;;;;;;;;;5056554;28;20044;-65
2022/04/06 13:48:24;;;;;;;5.97;3.03;;;;;;;;;;5075099;28;20052;-65
2022/04/06 13:50:51;;;;;;;7.00;3.58;;;;;;;;;;5069544;28;20048;-65
2022/04/06 13:53:17;;;;;;;10.82;3.03;;;;;;;;;;5073914;28;20751;-65
2022/04/06 13:55:44;;;;;;;10.70;4.57;;;;;;;;;;5059198;28;20993;-65
2022/04/06 13:58:11;;;;;;;6.93;3.60;;;;;;;;;;5072940;28;20044;-65
2022/04/06 14:00:37;;;;;;;5.38;3.13;;;;;;;;;;5073878;28;20059;-65
2022/04/06 14:03:04;;;;;;;4.55;3.50;;;;;;;;;;5065893;28;20058;-65
2022/04/06 14:05:31;;;;;;;8.82;3.63;;;;;;;;;;5065436;28;20584;-65
2022/04/06 14:08:03;;;;;;;9.05;3.60;;;;;;;;;;5064054;28;20548;-65
2022/04/06 14:10:29;;;;;;;6.60;3.85;;;;;;;;;;5069386;28;20553;-65
2022/04/06 14:12:55;;;;;;;6.78;3.50;;;;;;;;;;5063228;28;20573;-65
2022/04/06 14:15:22;;;;;;;6.43;3.80;;;;;;;;;;5063185;28;20348;-66
2022/04/06 14:17:48;;;;;;;5.85;3.47;;;;;;;;;;5063194;28;20056;-65
2022/04/06 14:20:15;;;;;;;6.00;3.55;;;;;;;;;;5056223;28;20335;-65
2022/04/06 14:22:44;;;;;;;5.63;3.50;;;;;;;;;;5065664;28;20048;-65
2022/04/06 14:25:16;;;;;;;8.40;3.88;;;;;;;;;;5049589;28;20076;-66
2022/04/06 14:27:44;;;;;;;6.25;3.45;;;;;;;;;;5074616;28;20052;-66
2022/04/06 14:30:10;;;;;;;6.03;3.50;;;;;;;;;;5072478;28;20075;-66
2022/04/06 14:32:37;;;;;;;6.47;3.38;;;;;;;;;;5075201;28;20391;-65
2022/04/06 14:35:03;;;;;;;6.97;3.88;;;;;;;;;;5078586;28;20515;-65
2022/04/06 14:37:30;;;;;;;6.57;3.20;;;;;;;;;;5059997;28;20056;-66
2022/04/06 14:39:56;;;;;;;5.28;3.47;;;;;;;;;;5072590;28;20056;-65
2022/04/06 14:42:22;;;;;;;5.57;3.65;;;;;;;;;;5069184;28;20044;-65
2022/04/06 14:44:49;;;;;;;6.38;2.92;;;;;;;;;;5077559;28;20627;-65
2022/04/06 14:47:17;;;;;;;6.10;3.00;;;;;;;;;;5067700;28;20048;-65